sensor_id;sensor_type;location;lat;lon;timestamp;pressure;altitude;pressure_sealevel;temperature;humidity
10946;BME280;5525;42.648;23.368;2022-07-24T00:01:12;94756.78;;;21.25;62.67
10946;BME280;5525;42.648;23.368;2022-07-24T00:03:41;94751.28;;;21.15;63.51
10946;BME280;5525;42.648;23.368;2022-07-24T00:06:08;94741.50;;;21.35;62.26
10946;BME280;5525;42.648;23.368;2022-07-24T00:08:34;94756.47;;;21.55;62.08
10946;BME280;5525;42.648;23.368;2022-07-24T00:11:01;94754.47;;;21.45;61.93
10946;BME280;5525;42.648;23.368;2022-07-24T00:13:28;94755.66;;;21.37;62.94
10946;BME280;5525;42.648;23.368;2022-07-24T00:15:55;94751.31;;;21.32;62.70
10946;BME280;5525;42.648;23.368;2022-07-24T00:18:22;94747.03;;;21.59;59.09
10946;BME280;5525;42.648;23.368;2022-07-24T00:20:50;94752.97;;;21.76;59.30
10946;BME280;5525;42.648;23.368;2022-07-24T00:23:17;94756.47;;;21.58;62.22
10946;BME280;5525;42.648;23.368;2022-07-24T00:25:44;94752.47;;;21.14;66.46
10946;BME280;5525;42.648;23.368;2022-07-24T00:28:11;94748.84;;;20.96;68.24
10946;BME280;5525;42.648;23.368;2022-07-24T00:30:38;94754.75;;;20.98;67.74
10946;BME280;5525;42.648;23.368;2022-07-24T00:33:04;94753.06;;;20.72;69.15
10946;BME280;5525;42.648;23.368;2022-07-24T00:35:31;94745.22;;;20.74;69.17
10946;BME280;5525;42.648;23.368;2022-07-24T00:38:00;94682.38;;;20.41;66.41
10946;BME280;5525;42.648;23.368;2022-07-24T00:40:28;94748.78;;;20.85;67.12
10946;BME280;5525;42.648;23.368;2022-07-24T00:42:55;94751.16;;;20.90;65.57
10946;BME280;5525;42.648;23.368;2022-07-24T00:45:22;94755.81;;;20.79;66.19
10946;BME280;5525;42.648;23.368;2022-07-24T00:47:49;94724.00;;;20.57;66.47
10946;BME280;5525;42.648;23.368;2022-07-24T00:50:16;94738.09;;;20.59;66.18
10946;BME280;5525;42.648;23.368;2022-07-24T00:52:44;94732.13;;;20.40;69.07
10946;BME280;5525;42.648;23.368;2022-07-24T00:55:12;94745.41;;;20.31;70.41
10946;BME280;5525;42.648;23.368;2022-07-24T00:57:40;94737.06;;;20.13;70.37
10946;BME280;5525;42.648;23.368;2022-07-24T01:00:10;94758.31;;;20.30;70.96
10946;BME280;5525;42.648;23.368;2022-07-24T01:02:39;94747.31;;;20.27;70.49
10946;BME280;5525;42.648;23.368;2022-07-24T01:05:07;94745.44;;;20.34;69.08
10946;BME280;5525;42.648;23.368;2022-07-24T01:07:35;94721.91;;;20.37;61.69
10946;BME280;5525;42.648;23.368;2022-07-24T01:10:02;94744.88;;;20.83;60.85
10946;BME280;5525;42.648;23.368;2022-07-24T01:12:31;94743.72;;;20.94;60.67
10946;BME280;5525;42.648;23.368;2022-07-24T01:14:59;94743.75;;;20.98;60.67
10946;BME280;5525;42.648;23.368;2022-07-24T01:17:29;94743.34;;;20.96;61.23
10946;BME280;5525;42.648;23.368;2022-07-24T01:19:56;94753.88;;;20.87;61.86
10946;BME280;5525;42.648;23.368;2022-07-24T01:22:25;94746.50;;;20.98;63.35
10946;BME280;5525;42.648;23.368;2022-07-24T01:24:52;94746.13;;;21.03;63.69
10946;BME280;5525;42.648;23.368;2022-07-24T01:27:20;94742.59;;;20.99;65.21
10946;BME280;5525;42.648;23.368;2022-07-24T01:29:47;94742.50;;;20.81;63.73
10946;BME280;5525;42.648;23.368;2022-07-24T01:32:14;94740.50;;;20.75;62.12
10946;BME280;5525;42.648;23.368;2022-07-24T01:34:41;94749.56;;;20.82;61.70
10946;BME280;5525;42.648;23.368;2022-07-24T01:37:09;94739.84;;;20.95;60.93
10946;BME280;5525;42.648;23.368;2022-07-24T01:39:37;94694.25;;;20.77;60.64
10946;BME280;5525;42.648;23.368;2022-07-24T01:42:04;94718.59;;;20.89;63.65
10946;BME280;5525;42.648;23.368;2022-07-24T01:44:31;94727.19;;;20.73;66.19
10946;BME280;5525;42.648;23.368;2022-07-24T01:46:58;94731.88;;;20.69;64.97
10946;BME280;5525;42.648;23.368;2022-07-24T01:49:25;94731.06;;;20.62;64.25
10946;BME280;5525;42.648;23.368;2022-07-24T01:51:52;94690.16;;;20.32;66.59
10946;BME280;5525;42.648;23.368;2022-07-24T01:54:19;94720.44;;;20.53;68.22
10946;BME280;5525;42.648;23.368;2022-07-24T01:56:47;94720.44;;;20.53;64.85
10946;BME280;5525;42.648;23.368;2022-07-24T01:59:14;94720.41;;;20.50;64.04
10946;BME280;5525;42.648;23.368;2022-07-24T02:01:41;94719.66;;;20.56;63.29
10946;BME280;5525;42.648;23.368;2022-07-24T02:04:08;94718.88;;;20.52;62.66
10946;BME280;5525;42.648;23.368;2022-07-24T02:06:34;94723.56;;;20.52;62.19
10946;BME280;5525;42.648;23.368;2022-07-24T02:09:02;94713.69;;;20.37;62.22
10946;BME280;5525;42.648;23.368;2022-07-24T02:11:29;94712.19;;;20.53;60.82
10946;BME280;5525;42.648;23.368;2022-07-24T02:13:57;94716.63;;;20.79;58.96
10946;BME280;5525;42.648;23.368;2022-07-24T02:16:25;94708.00;;;20.80;58.33
10946;BME280;5525;42.648;23.368;2022-07-24T02:18:52;94684.41;;;20.65;58.29
10946;BME280;5525;42.648;23.368;2022-07-24T02:21:19;94722.47;;;20.74;58.72
10946;BME280;5525;42.648;23.368;2022-07-24T02:23:46;94718.13;;;20.59;59.39
10946;BME280;5525;42.648;23.368;2022-07-24T02:26:15;94724.03;;;20.71;59.11
10946;BME280;5525;42.648;23.368;2022-07-24T02:28:42;94720.56;;;20.81;58.13
10946;BME280;5525;42.648;23.368;2022-07-24T02:31:10;94713.50;;;20.80;57.51
10946;BME280;5525;42.648;23.368;2022-07-24T02:33:37;94686.78;;;20.63;57.57
10946;BME280;5525;42.648;23.368;2022-07-24T02:36:05;94712.72;;;20.87;57.22
10946;BME280;5525;42.648;23.368;2022-07-24T02:38:32;94718.19;;;20.80;57.43
10946;BME280;5525;42.648;23.368;2022-07-24T02:40:59;94724.84;;;20.82;57.77
10946;BME280;5525;42.648;23.368;2022-07-24T02:43:26;94726.00;;;20.78;59.78
10946;BME280;5525;42.648;23.368;2022-07-24T02:45:52;94679.09;;;20.15;62.74
10946;BME280;5525;42.648;23.368;2022-07-24T02:48:21;94730.06;;;20.23;65.21
10946;BME280;5525;42.648;23.368;2022-07-24T02:50:48;94689.78;;;19.72;66.71
10946;BME280;5525;42.648;23.368;2022-07-24T02:53:15;94724.78;;;19.96;66.69
10946;BME280;5525;42.648;23.368;2022-07-24T02:55:42;94721.19;;;19.89;68.06
10946;BME280;5525;42.648;23.368;2022-07-24T02:58:09;94711.28;;;19.70;69.01
10946;BME280;5525;42.648;23.368;2022-07-24T03:00:36;94708.16;;;19.72;69.10
10946;BME280;5525;42.648;23.368;2022-07-24T03:03:03;94718.28;;;19.64;70.63
10946;BME280;5525;42.648;23.368;2022-07-24T03:05:31;94727.16;;;19.51;71.67
10946;BME280;5525;42.648;23.368;2022-07-24T03:07:58;94725.31;;;19.22;74.36
10946;BME280;5525;42.648;23.368;2022-07-24T03:10:25;94742.25;;;18.98;76.92
10946;BME280;5525;42.648;23.368;2022-07-24T03:12:51;94723.63;;;18.74;78.30
10946;BME280;5525;42.648;23.368;2022-07-24T03:15:18;94726.41;;;18.48;80.93
10946;BME280;5525;42.648;23.368;2022-07-24T03:17:49;94720.09;;;18.43;81.91
10946;BME280;5525;42.648;23.368;2022-07-24T03:20:17;94722.78;;;18.70;79.76
10946;BME280;5525;42.648;23.368;2022-07-24T03:22:46;94731.22;;;18.91;78.61
10946;BME280;5525;42.648;23.368;2022-07-24T03:25:13;94732.69;;;18.81;79.37
10946;BME280;5525;42.648;23.368;2022-07-24T03:27:40;94710.16;;;18.58;79.44
10946;BME280;5525;42.648;23.368;2022-07-24T03:30:09;94748.09;;;18.63;80.94
10946;BME280;5525;42.648;23.368;2022-07-24T03:32:36;94745.63;;;18.55;81.67
10946;BME280;5525;42.648;23.368;2022-07-24T03:35:03;94741.03;;;18.62;80.84
10946;BME280;5525;42.648;23.368;2022-07-24T03:37:31;94725.81;;;18.61;80.43
10946;BME280;5525;42.648;23.368;2022-07-24T03:39:59;94725.59;;;18.77;80.15
10946;BME280;5525;42.648;23.368;2022-07-24T03:42:26;94742.66;;;19.00;78.71
10946;BME280;5525;42.648;23.368;2022-07-24T03:44:53;94744.84;;;19.20;76.76
10946;BME280;5525;42.648;23.368;2022-07-24T03:47:20;94746.13;;;19.30;76.13
10946;BME280;5525;42.648;23.368;2022-07-24T03:49:46;94746.31;;;19.47;75.16
10946;BME280;5525;42.648;23.368;2022-07-24T03:52:13;94697.56;;;19.27;74.48
10946;BME280;5525;42.648;23.368;2022-07-24T03:54:40;94739.50;;;19.78;73.69
10946;BME280;5525;42.648;23.368;2022-07-24T03:57:08;94739.41;;;20.15;71.03
10946;BME280;5525;42.648;23.368;2022-07-24T03:59:35;94734.88;;;20.47;68.36
10946;BME280;5525;42.648;23.368;2022-07-24T04:02:02;94737.41;;;20.87;65.01
10946;BME280;5525;42.648;23.368;2022-07-24T04:04:29;94732.88;;;21.26;63.60
10946;BME280;5525;42.648;23.368;2022-07-24T04:06:56;94734.50;;;21.80;60.30
10946;BME280;5525;42.648;23.368;2022-07-24T04:09:23;94727.41;;;22.28;57.75
10946;BME280;5525;42.648;23.368;2022-07-24T04:11:50;94691.97;;;22.44;55.71
10946;BME280;5525;42.648;23.368;2022-07-24T04:14:18;94732.69;;;23.01;53.93
10946;BME280;5525;42.648;23.368;2022-07-24T04:16:45;94734.91;;;23.31;51.87
10946;BME280;5525;42.648;23.368;2022-07-24T04:19:12;94748.81;;;23.75;50.32
10946;BME280;5525;42.648;23.368;2022-07-24T04:21:39;94741.50;;;24.02;51.13
10946;BME280;5525;42.648;23.368;2022-07-24T04:24:06;94737.69;;;24.33;50.95
10946;BME280;5525;42.648;23.368;2022-07-24T04:26:33;94730.19;;;24.71;46.93
10946;BME280;5525;42.648;23.368;2022-07-24T04:29:00;94738.53;;;25.01;46.60
10946;BME280;5525;42.648;23.368;2022-07-24T04:31:29;94750.78;;;25.30;47.01
10946;BME280;5525;42.648;23.368;2022-07-24T04:33:56;94737.06;;;25.80;46.29
10946;BME280;5525;42.648;23.368;2022-07-24T04:36:23;94732.88;;;25.95;44.96
10946;BME280;5525;42.648;23.368;2022-07-24T04:38:50;94749.78;;;26.00;43.86
10946;BME280;5525;42.648;23.368;2022-07-24T04:41:17;94743.94;;;26.21;43.30
10946;BME280;5525;42.648;23.368;2022-07-24T04:43:43;94737.13;;;26.03;43.62
10946;BME280;5525;42.648;23.368;2022-07-24T04:46:11;94723.94;;;25.84;44.51
10946;BME280;5525;42.648;23.368;2022-07-24T04:48:39;94679.56;;;26.14;43.19
10946;BME280;5525;42.648;23.368;2022-07-24T04:51:06;94746.97;;;26.73;43.63
10946;BME280;5525;42.648;23.368;2022-07-24T04:53:33;94734.13;;;27.02;40.78
10946;BME280;5525;42.648;23.368;2022-07-24T04:56:00;94727.19;;;27.49;39.66
10946;BME280;5525;42.648;23.368;2022-07-24T04:58:27;94757.44;;;27.79;39.35
10946;BME280;5525;42.648;23.368;2022-07-24T05:00:53;94735.75;;;27.19;40.06
10946;BME280;5525;42.648;23.368;2022-07-24T05:03:20;94728.00;;;27.66;39.36
10946;BME280;5525;42.648;23.368;2022-07-24T05:05:49;94733.72;;;28.11;38.77
10946;BME280;5525;42.648;23.368;2022-07-24T05:08:16;94732.22;;;28.54;37.89
10946;BME280;5525;42.648;23.368;2022-07-24T05:10:42;94756.19;;;29.09;36.58
10946;BME280;5525;42.648;23.368;2022-07-24T05:13:09;94706.00;;;28.23;37.21
10946;BME280;5525;42.648;23.368;2022-07-24T05:15:36;94771.38;;;29.99;34.66
10946;BME280;5525;42.648;23.368;2022-07-24T05:18:03;94765.44;;;31.50;32.13
10946;BME280;5525;42.648;23.368;2022-07-24T05:20:31;94767.25;;;31.65;31.97
10946;BME280;5525;42.648;23.368;2022-07-24T05:22:59;94758.06;;;32.17;31.10
10946;BME280;5525;42.648;23.368;2022-07-24T05:25:26;94779.59;;;33.50;28.95
10946;BME280;5525;42.648;23.368;2022-07-24T05:27:53;94755.16;;;33.32;29.22
10946;BME280;5525;42.648;23.368;2022-07-24T05:30:20;94748.06;;;34.09;27.27
10946;BME280;5525;42.648;23.368;2022-07-24T05:32:47;94783.19;;;33.59;28.20
10946;BME280;5525;42.648;23.368;2022-07-24T05:35:14;94782.09;;;33.39;28.51
10946;BME280;5525;42.648;23.368;2022-07-24T05:37:41;94788.06;;;35.07;26.56
10946;BME280;5525;42.648;23.368;2022-07-24T05:40:11;94778.69;;;35.10;25.33
10946;BME280;5525;42.648;23.368;2022-07-24T05:42:38;94781.88;;;34.71;26.34
10946;BME280;5525;42.648;23.368;2022-07-24T05:45:05;94791.56;;;34.28;27.48
10946;BME280;5525;42.648;23.368;2022-07-24T05:47:35;94776.63;;;33.71;28.16
10946;BME280;5525;42.648;23.368;2022-07-24T05:50:06;94779.75;;;35.36;25.77
10946;BME280;5525;42.648;23.368;2022-07-24T05:52:33;94779.88;;;35.71;25.34
10946;BME280;5525;42.648;23.368;2022-07-24T05:55:00;94747.63;;;36.39;22.87
10946;BME280;5525;42.648;23.368;2022-07-24T05:57:29;94781.50;;;37.19;23.06
10946;BME280;5525;42.648;23.368;2022-07-24T05:59:55;94777.88;;;36.15;23.93
10946;BME280;5525;42.648;23.368;2022-07-24T06:02:22;94755.66;;;36.81;23.61
10946;BME280;5525;42.648;23.368;2022-07-24T06:04:49;94744.50;;;35.50;25.21
10946;BME280;5525;42.648;23.368;2022-07-24T06:07:16;94736.75;;;36.18;24.00
10946;BME280;5525;42.648;23.368;2022-07-24T06:09:43;94765.34;;;35.58;25.36
10946;BME280;5525;42.648;23.368;2022-07-24T06:12:10;94755.66;;;36.81;24.16
10946;BME280;5525;42.648;23.368;2022-07-24T06:14:38;94766.00;;;36.55;23.77
10946;BME280;5525;42.648;23.368;2022-07-24T06:17:05;94772.19;;;35.95;24.90
10946;BME280;5525;42.648;23.368;2022-07-24T06:19:32;94780.13;;;38.01;22.86
10946;BME280;5525;42.648;23.368;2022-07-24T06:21:59;94772.84;;;38.45;22.50
10946;BME280;5525;42.648;23.368;2022-07-24T06:24:26;94772.66;;;37.72;23.21
10946;BME280;5525;42.648;23.368;2022-07-24T06:26:52;94774.16;;;37.07;23.68
10946;BME280;5525;42.648;23.368;2022-07-24T06:29:19;94771.72;;;39.11;21.50
10946;BME280;5525;42.648;23.368;2022-07-24T06:31:48;94764.88;;;40.59;20.74
10946;BME280;5525;42.648;23.368;2022-07-24T06:34:14;94775.69;;;40.60;20.01
10946;BME280;5525;42.648;23.368;2022-07-24T06:36:41;94770.13;;;38.56;21.85
10946;BME280;5525;42.648;23.368;2022-07-24T06:39:08;94762.91;;;38.24;22.69
10946;BME280;5525;42.648;23.368;2022-07-24T06:41:35;94756.22;;;38.90;22.08
10946;BME280;5525;42.648;23.368;2022-07-24T06:44:02;94756.66;;;40.72;20.49
10946;BME280;5525;42.648;23.368;2022-07-24T06:46:29;94762.75;;;41.77;19.90
10946;BME280;5525;42.648;23.368;2022-07-24T06:48:57;94772.91;;;43.45;17.83
10946;BME280;5525;42.648;23.368;2022-07-24T06:51:24;94747.56;;;41.74;18.95
10946;BME280;5525;42.648;23.368;2022-07-24T06:53:51;94767.28;;;44.00;17.23
10946;BME280;5525;42.648;23.368;2022-07-24T06:56:17;94745.56;;;44.34;16.68
10946;BME280;5525;42.648;23.368;2022-07-24T06:58:45;94758.81;;;44.63;16.03
10946;BME280;5525;42.648;23.368;2022-07-24T07:01:12;94740.66;;;44.16;16.59
10946;BME280;5525;42.648;23.368;2022-07-24T07:03:38;94766.34;;;45.06;16.24
10946;BME280;5525;42.648;23.368;2022-07-24T07:06:07;94749.28;;;44.74;16.47
10946;BME280;5525;42.648;23.368;2022-07-24T07:08:34;94763.63;;;45.26;15.92
10946;BME280;5525;42.648;23.368;2022-07-24T07:11:01;94762.72;;;45.70;15.35
10946;BME280;5525;42.648;23.368;2022-07-24T07:13:28;94751.56;;;44.31;16.05
10946;BME280;5525;42.648;23.368;2022-07-24T07:15:55;94761.97;;;44.28;15.96
10946;BME280;5525;42.648;23.368;2022-07-24T07:18:22;94757.72;;;45.97;14.97
10946;BME280;5525;42.648;23.368;2022-07-24T07:20:49;94767.03;;;45.64;14.68
10946;BME280;5525;42.648;23.368;2022-07-24T07:23:21;94767.59;;;47.04;14.21
10946;BME280;5525;42.648;23.368;2022-07-24T07:25:48;94762.56;;;46.02;14.99
10946;BME280;5525;42.648;23.368;2022-07-24T07:28:15;94768.41;;;46.30;14.51
10946;BME280;5525;42.648;23.368;2022-07-24T07:30:42;94766.06;;;47.03;14.80
10946;BME280;5525;42.648;23.368;2022-07-24T07:33:08;94749.59;;;47.88;13.89
10946;BME280;5525;42.648;23.368;2022-07-24T07:35:35;94742.34;;;46.00;14.49
10946;BME280;5525;42.648;23.368;2022-07-24T07:38:02;94763.97;;;46.83;14.71
10946;BME280;5525;42.648;23.368;2022-07-24T07:40:31;94752.28;;;44.50;15.69
10946;BME280;5525;42.648;23.368;2022-07-24T07:42:58;94758.66;;;46.26;14.68
10946;BME280;5525;42.648;23.368;2022-07-24T07:45:25;94761.56;;;47.72;13.75
10946;BME280;5525;42.648;23.368;2022-07-24T07:47:51;94756.03;;;48.24;13.26
10946;BME280;5525;42.648;23.368;2022-07-24T07:50:18;94759.56;;;49.51;12.71
10946;BME280;5525;42.648;23.368;2022-07-24T07:52:45;94765.47;;;49.68;12.51
10946;BME280;5525;42.648;23.368;2022-07-24T07:55:12;94735.09;;;47.50;13.92
10946;BME280;5525;42.648;23.368;2022-07-24T07:57:41;94744.22;;;47.85;13.77
10946;BME280;5525;42.648;23.368;2022-07-24T08:00:09;94752.72;;;48.86;13.10
10946;BME280;5525;42.648;23.368;2022-07-24T08:02:37;94749.53;;;48.16;13.57
10946;BME280;5525;42.648;23.368;2022-07-24T08:05:05;94754.13;;;47.69;13.81
10946;BME280;5525;42.648;23.368;2022-07-24T08:07:32;94758.22;;;49.44;12.62
10946;BME280;5525;42.648;23.368;2022-07-24T08:09:59;94761.59;;;49.80;12.09
10946;BME280;5525;42.648;23.368;2022-07-24T08:12:26;94767.44;;;50.05;12.04
10946;BME280;5525;42.648;23.368;2022-07-24T08:14:54;94720.78;;;48.82;11.96
10946;BME280;5525;42.648;23.368;2022-07-24T08:17:21;94749.84;;;48.63;12.48
10946;BME280;5525;42.648;23.368;2022-07-24T08:19:48;94747.94;;;46.39;14.32
10946;BME280;5525;42.648;23.368;2022-07-24T08:22:14;94734.50;;;46.68;13.91
10946;BME280;5525;42.648;23.368;2022-07-24T08:24:42;94755.44;;;45.95;14.84
10946;BME280;5525;42.648;23.368;2022-07-24T08:27:09;94742.78;;;46.38;14.50
10946;BME280;5525;42.648;23.368;2022-07-24T08:29:36;94744.63;;;45.81;14.10
10946;BME280;5525;42.648;23.368;2022-07-24T08:32:05;94755.25;;;46.27;14.38
10946;BME280;5525;42.648;23.368;2022-07-24T08:34:32;94740.66;;;47.00;13.81
10946;BME280;5525;42.648;23.368;2022-07-24T08:36:59;94747.47;;;45.68;14.80
10946;BME280;5525;42.648;23.368;2022-07-24T08:39:26;94744.66;;;42.21;17.28
10946;BME280;5525;42.648;23.368;2022-07-24T08:41:53;94736.31;;;40.68;18.58
10946;BME280;5525;42.648;23.368;2022-07-24T08:44:20;94736.03;;;40.93;18.13
10946;BME280;5525;42.648;23.368;2022-07-24T08:46:48;94670.16;;;40.65;18.87
10946;BME280;5525;42.648;23.368;2022-07-24T08:49:19;94725.34;;;41.27;18.32
10946;BME280;5525;42.648;23.368;2022-07-24T08:51:49;94729.59;;;39.71;19.69
10946;BME280;5525;42.648;23.368;2022-07-24T08:54:16;94715.75;;;39.09;21.08
10946;BME280;5525;42.648;23.368;2022-07-24T08:56:43;94714.13;;;38.97;21.08
10946;BME280;5525;42.648;23.368;2022-07-24T08:59:17;94719.41;;;38.05;21.55
10946;BME280;5525;42.648;23.368;2022-07-24T09:01:47;94716.88;;;36.90;23.16
10946;BME280;5525;42.648;23.368;2022-07-24T09:04:35;94715.50;;;36.46;23.68
10946;BME280;5525;42.648;23.368;2022-07-24T09:07:04;94712.88;;;36.42;23.77
10946;BME280;5525;42.648;23.368;2022-07-24T09:09:31;94688.97;;;36.72;23.77
10946;BME280;5525;42.648;23.368;2022-07-24T09:12:06;94710.09;;;39.09;21.13
10946;BME280;5525;42.648;23.368;2022-07-24T09:14:34;94714.22;;;40.44;20.18
10946;BME280;5525;42.648;23.368;2022-07-24T09:17:04;94721.69;;;41.37;19.33
10946;BME280;5525;42.648;23.368;2022-07-24T09:19:47;94711.81;;;42.60;18.25
10946;BME280;5525;42.648;23.368;2022-07-24T09:22:25;94728.63;;;45.26;15.81
10946;BME280;5525;42.648;23.368;2022-07-24T09:25:11;94733.88;;;46.62;14.85
10946;BME280;5525;42.648;23.368;2022-07-24T09:27:40;94731.16;;;46.56;15.14
10946;BME280;5525;42.648;23.368;2022-07-24T09:30:08;94734.13;;;48.42;13.55
10946;BME280;5525;42.648;23.368;2022-07-24T09:32:36;94728.94;;;47.75;14.00
10946;BME280;5525;42.648;23.368;2022-07-24T09:35:06;94730.69;;;50.03;12.33
10946;BME280;5525;42.648;23.368;2022-07-24T09:37:34;94736.06;;;49.22;12.94
10946;BME280;5525;42.648;23.368;2022-07-24T09:40:09;94738.28;;;49.69;13.21
10946;BME280;5525;42.648;23.368;2022-07-24T09:42:37;94735.72;;;49.03;13.33
10946;BME280;5525;42.648;23.368;2022-07-24T09:45:07;94733.00;;;49.35;12.77
10946;BME280;5525;42.648;23.368;2022-07-24T09:47:38;94733.66;;;50.20;13.21
10946;BME280;5525;42.648;23.368;2022-07-24T09:50:15;94723.13;;;49.76;13.05
10946;BME280;5525;42.648;23.368;2022-07-24T09:52:43;94710.59;;;49.34;13.20
10946;BME280;5525;42.648;23.368;2022-07-24T09:55:21;94674.50;;;48.78;12.87
10946;BME280;5525;42.648;23.368;2022-07-24T09:57:49;94706.25;;;48.72;13.49
10946;BME280;5525;42.648;23.368;2022-07-24T10:00:16;94706.06;;;47.82;13.61
10946;BME280;5525;42.648;23.368;2022-07-24T10:02:44;94696.69;;;49.00;11.97
10946;BME280;5525;42.648;23.368;2022-07-24T10:05:13;94710.88;;;49.75;10.88
10946;BME280;5525;42.648;23.368;2022-07-24T10:07:42;94702.97;;;49.36;11.77
10946;BME280;5525;42.648;23.368;2022-07-24T10:10:12;94686.50;;;47.22;13.51
10946;BME280;5525;42.648;23.368;2022-07-24T10:12:39;94685.50;;;45.89;13.83
10946;BME280;5525;42.648;23.368;2022-07-24T10:15:07;94681.38;;;43.46;15.54
10946;BME280;5525;42.648;23.368;2022-07-24T10:17:49;94652.97;;;44.28;14.97
10946;BME280;5525;42.648;23.368;2022-07-24T10:20:34;94668.22;;;43.80;15.00
10946;BME280;5525;42.648;23.368;2022-07-24T10:23:04;94679.38;;;44.28;14.91
10946;BME280;5525;42.648;23.368;2022-07-24T10:25:43;94678.41;;;44.39;14.26
10946;BME280;5525;42.648;23.368;2022-07-24T10:28:14;94678.19;;;45.21;14.03
10946;BME280;5525;42.648;23.368;2022-07-24T10:30:47;94680.66;;;44.59;14.41
10946;BME280;5525;42.648;23.368;2022-07-24T10:33:15;94674.16;;;44.14;14.84
10946;BME280;5525;42.648;23.368;2022-07-24T10:35:44;94674.59;;;46.00;13.74
10946;BME280;5525;42.648;23.368;2022-07-24T10:38:19;94670.59;;;47.93;12.68
10946;BME280;5525;42.648;23.368;2022-07-24T10:40:49;94661.97;;;47.34;13.14
10946;BME280;5525;42.648;23.368;2022-07-24T10:43:17;94670.25;;;47.96;12.87
10946;BME280;5525;42.648;23.368;2022-07-24T10:45:45;94666.25;;;48.14;12.17
10946;BME280;5525;42.648;23.368;2022-07-24T10:48:28;94661.25;;;48.00;12.48
10946;BME280;5525;42.648;23.368;2022-07-24T10:51:09;94658.88;;;47.68;12.93
10946;BME280;5525;42.648;23.368;2022-07-24T10:53:51;94661.16;;;48.73;11.87
10946;BME280;5525;42.648;23.368;2022-07-24T10:56:22;94668.50;;;50.47;11.19
10946;BME280;5525;42.648;23.368;2022-07-24T10:59:07;94666.00;;;49.40;11.06
10946;BME280;5525;42.648;23.368;2022-07-24T11:01:38;94652.75;;;48.37;11.57
10946;BME280;5525;42.648;23.368;2022-07-24T11:04:29;94662.84;;;48.91;11.09
10946;BME280;5525;42.648;23.368;2022-07-24T11:07:10;94651.69;;;49.80;10.52
10946;BME280;5525;42.648;23.368;2022-07-24T11:09:59;94649.41;;;49.24;11.23
10946;BME280;5525;42.648;23.368;2022-07-24T11:12:27;94638.88;;;47.91;11.46
10946;BME280;5525;42.648;23.368;2022-07-24T11:14:58;94641.97;;;50.07;10.34
10946;BME280;5525;42.648;23.368;2022-07-24T11:17:46;94638.47;;;50.41;10.46
10946;BME280;5525;42.648;23.368;2022-07-24T11:20:15;94633.19;;;49.58;11.03
10946;BME280;5525;42.648;23.368;2022-07-24T11:22:47;94621.78;;;48.28;12.07
10946;BME280;5525;42.648;23.368;2022-07-24T11:25:16;94623.28;;;47.41;11.93
10946;BME280;5525;42.648;23.368;2022-07-24T11:27:50;94621.56;;;45.71;13.11
10946;BME280;5525;42.648;23.368;2022-07-24T11:30:19;94615.56;;;44.05;14.14
10946;BME280;5525;42.648;23.368;2022-07-24T11:32:46;94606.22;;;42.08;15.89
10946;BME280;5525;42.648;23.368;2022-07-24T11:35:13;94596.53;;;40.65;17.48
10946;BME280;5525;42.648;23.368;2022-07-24T11:37:44;94594.09;;;42.08;16.45
10946;BME280;5525;42.648;23.368;2022-07-24T11:40:15;94607.19;;;40.43;18.17
10946;BME280;5525;42.648;23.368;2022-07-24T11:42:43;94599.19;;;40.24;17.49
10946;BME280;5525;42.648;23.368;2022-07-24T11:45:10;94593.09;;;39.76;18.17
10946;BME280;5525;42.648;23.368;2022-07-24T11:47:37;94598.41;;;39.25;18.65
10946;BME280;5525;42.648;23.368;2022-07-24T11:50:06;94589.44;;;39.37;18.55
10946;BME280;5525;42.648;23.368;2022-07-24T11:52:35;94586.06;;;39.06;18.55
10946;BME280;5525;42.648;23.368;2022-07-24T11:55:06;94550.53;;;38.18;19.01
10946;BME280;5525;42.648;23.368;2022-07-24T11:57:37;94585.59;;;37.70;20.10
10946;BME280;5525;42.648;23.368;2022-07-24T12:00:08;94556.94;;;36.89;21.69
10946;BME280;5525;42.648;23.368;2022-07-24T12:02:36;94555.88;;;35.71;23.01
10946;BME280;5525;42.648;23.368;2022-07-24T12:05:04;94582.13;;;35.83;22.97
10946;BME280;5525;42.648;23.368;2022-07-24T12:07:31;94578.22;;;35.95;22.93
10946;BME280;5525;42.648;23.368;2022-07-24T12:09:59;94564.78;;;36.05;23.41
10946;BME280;5525;42.648;23.368;2022-07-24T12:12:30;94574.38;;;36.13;22.86
10946;BME280;5525;42.648;23.368;2022-07-24T12:15:03;94567.34;;;36.03;23.14
10946;BME280;5525;42.648;23.368;2022-07-24T12:17:31;94576.69;;;35.80;24.81
10946;BME280;5525;42.648;23.368;2022-07-24T12:19:59;94560.53;;;35.60;24.57
10946;BME280;5525;42.648;23.368;2022-07-24T12:22:28;94561.63;;;35.19;24.89
10946;BME280;5525;42.648;23.368;2022-07-24T12:24:56;94525.56;;;35.12;24.97
10946;BME280;5525;42.648;23.368;2022-07-24T12:27:49;94565.47;;;35.65;24.78
10946;BME280;5525;42.648;23.368;2022-07-24T12:30:22;94515.38;;;35.14;24.39
10946;BME280;5525;42.648;23.368;2022-07-24T12:32:58;94571.03;;;35.59;23.63
10946;BME280;5525;42.648;23.368;2022-07-24T12:35:27;94566.09;;;35.89;24.02
10946;BME280;5525;42.648;23.368;2022-07-24T12:37:55;94517.72;;;36.00;25.33
10946;BME280;5525;42.648;23.368;2022-07-24T12:40:24;94520.75;;;36.16;23.38
10946;BME280;5525;42.648;23.368;2022-07-24T12:43:01;94550.19;;;36.81;23.89
10946;BME280;5525;42.648;23.368;2022-07-24T12:45:28;94556.09;;;37.08;23.97
10946;BME280;5525;42.648;23.368;2022-07-24T12:48:10;94554.28;;;37.05;23.11
10946;BME280;5525;42.648;23.368;2022-07-24T12:50:38;94551.63;;;36.96;23.41
10946;BME280;5525;42.648;23.368;2022-07-24T12:53:06;94529.91;;;36.77;23.79
10946;BME280;5525;42.648;23.368;2022-07-24T12:55:34;94527.22;;;36.88;23.18
10946;BME280;5525;42.648;23.368;2022-07-24T12:58:04;94530.59;;;36.92;23.05
10946;BME280;5525;42.648;23.368;2022-07-24T13:00:32;94526.06;;;37.26;21.78
10946;BME280;5525;42.648;23.368;2022-07-24T13:02:59;94507.75;;;37.41;22.39
10946;BME280;5525;42.648;23.368;2022-07-24T13:05:37;94521.97;;;37.27;21.79
10946;BME280;5525;42.648;23.368;2022-07-24T13:08:05;94499.56;;;36.86;22.17